Time;durP1;ratioP1;P1;durP2;ratioP2;P2;SDS_P1;SDS_P2;PMS_P1;PMS_P2;Temp;Humidity;BMP_temperature;BMP_pressure;BME280_temperature;BME280_humidity;BME280_pressure;Samples;Min_cycle;Max_cycle;Signal;HPM_P1;HPM_P2
2022/11/20 00:02:00;;;;;;;49.13;38.30;;;-0.10;99.90;;;;;;5015211;28;20061;-71
2022/11/20 00:04:25;;;;;;;46.63;36.70;;;-0.30;99.90;;;;;;5014842;28;20050;-71
2022/11/20 00:06:51;;;;;;;44.47;35.47;;;-0.30;99.90;;;;;;5015077;28;20038;-72
2022/11/20 00:09:16;;;;;;;41.90;34.53;;;-0.30;99.90;;;;;;5015512;28;20050;-71
2022/11/20 00:11:42;;;;;;;44.13;33.50;;;-0.30;99.90;;;;;;5015461;28;20053;-72
2022/11/20 00:14:12;;;;;;;41.22;31.98;;;-0.20;99.90;;;;;;5015192;28;20450;-72
2022/11/20 00:16:38;;;;;;;42.05;33.80;;;-0.30;99.90;;;;;;5015112;28;20052;-72
2022/11/20 00:19:04;;;;;;;44.42;31.08;;;-0.20;99.90;;;;;;5014756;28;20045;-72
2022/11/20 00:21:30;;;;;;;35.60;29.38;;;-0.20;99.90;;;;;;5015032;28;20083;-71
2022/11/20 00:23:56;;;;;;;39.60;29.77;;;0.30;99.90;;;;;;5015257;28;20125;-71
2022/11/20 00:26:24;;;;;;;40.25;29.80;;;-0.20;99.90;;;;;;5015803;28;20354;-71
2022/11/20 00:28:52;;;;;;;39.15;30.10;;;-0.20;99.90;;;;;;5015633;28;20062;-71
2022/11/20 00:31:18;;;;;;;35.28;27.38;;;-0.20;99.90;;;;;;5014941;28;20034;-72
2022/11/20 00:33:44;;;;;;;35.83;26.85;;;-0.20;99.90;;;;;;5014690;28;20050;-71
2022/11/20 00:36:12;;;;;;;33.97;26.65;;;-0.20;99.90;;;;;;5015391;28;20050;-71
2022/11/20 00:38:38;;;;;;;33.72;26.38;;;-0.20;99.90;;;;;;5015006;28;20081;-72
2022/11/20 00:41:07;;;;;;;35.15;26.90;;;-0.20;99.90;;;;;;4964695;28;20104;-71
2022/11/20 00:43:33;;;;;;;33.72;26.73;;;-0.10;99.90;;;;;;5014754;28;20053;-72
2022/11/20 00:45:59;;;;;;;32.97;26.48;;;-0.10;99.90;;;;;;5015138;28;20042;-71
2022/11/20 00:48:25;;;;;;;32.60;25.60;;;-0.10;99.90;;;;;;5015767;28;20073;-72
2022/11/20 00:50:50;;;;;;;32.13;25.70;;;-0.10;99.90;;;;;;5019495;28;20101;-73
2022/11/20 00:53:16;;;;;;;32.38;24.70;;;-0.10;99.90;;;;;;5018725;28;20113;-71
2022/11/20 00:55:42;;;;;;;32.67;25.50;;;-0.10;99.90;;;;;;5018473;28;20037;-71
2022/11/20 00:58:07;;;;;;;33.45;26.25;;;-0.10;99.90;;;;;;5018721;28;20103;-72
2022/11/20 01:00:33;;;;;;;36.00;27.27;;;-0.10;99.90;;;;;;5018474;28;20347;-71
2022/11/20 01:02:58;;;;;;;34.08;26.10;;;-0.10;99.90;;;;;;5018588;28;20339;-72
2022/11/20 01:05:24;;;;;;;33.40;26.52;;;-0.10;99.90;;;;;;5018847;28;20040;-72
2022/11/20 01:07:49;;;;;;;34.00;25.70;;;0.00;99.90;;;;;;5018413;28;20486;-72
2022/11/20 01:10:15;;;;;;;34.53;27.42;;;0.00;99.90;;;;;;5017762;28;20053;-72
2022/11/20 01:12:40;;;;;;;36.38;27.58;;;-0.10;99.90;;;;;;5018140;28;20042;-72
2022/11/20 01:15:07;;;;;;;30.25;24.77;;;-0.10;99.90;;;;;;5018202;28;20106;-72
2022/11/20 01:17:33;;;;;;;33.95;26.05;;;-0.10;99.90;;;;;;5028324;28;20046;-72
2022/11/20 01:19:59;;;;;;;36.60;28.27;;;0.00;99.90;;;;;;5018218;28;20124;-72
2022/11/20 01:22:24;;;;;;;34.63;27.13;;;0.00;99.90;;;;;;5018351;28;20042;-72
2022/11/20 01:24:51;;;;;;;35.08;26.75;;;-0.10;99.90;;;;;;5018214;28;20054;-72
2022/11/20 01:27:16;;;;;;;34.35;26.48;;;0.00;99.90;;;;;;5000999;28;20129;-72
2022/11/20 01:29:42;;;;;;;32.00;25.90;;;0.00;99.90;;;;;;5017965;28;20042;-72
2022/11/20 01:32:08;;;;;;;31.42;24.85;;;0.00;99.90;;;;;;5017737;28;20074;-72
2022/11/20 01:34:33;;;;;;;34.15;26.58;;;0.00;99.90;;;;;;5018148;28;20129;-71
2022/11/20 01:36:59;;;;;;;34.63;25.77;;;0.00;99.90;;;;;;5038234;28;20053;-72
2022/11/20 01:39:26;;;;;;;34.85;26.58;;;0.00;99.90;;;;;;5037657;28;20080;-72
2022/11/20 01:44:56;;;;;;;31.13;24.77;;;0.00;99.90;;;;;;5019917;28;20049;-72
2022/11/20 01:47:34;;;;;;;32.50;25.85;;;0.00;99.90;;;;;;5025008;28;20045;-71
2022/11/20 01:50:05;;;;;;;30.55;25.75;;;0.00;99.90;;;;;;5001184;28;20049;-72
2022/11/20 01:52:42;;;;;;;30.90;25.88;;;0.00;99.90;;;;;;5037352;28;20099;-72
2022/11/20 01:55:13;;;;;;;36.00;28.38;;;0.00;99.90;;;;;;5037316;28;20453;-73
2022/11/20 01:57:40;;;;;;;29.90;24.85;;;0.10;99.90;;;;;;5019768;28;20046;-72
2022/11/20 02:00:09;;;;;;;32.65;25.20;;;0.80;99.90;;;;;;5036124;28;20092;-72
2022/11/20 02:02:37;;;;;;;34.97;24.98;;;0.10;99.90;;;;;;5037145;28;20037;-72
2022/11/20 02:05:17;;;;;;;37.60;27.05;;;0.00;99.90;;;;;;5033996;28;20354;-72
2022/11/20 02:07:44;;;;;;;31.45;25.80;;;0.00;99.90;;;;;;5017379;28;20042;-73
2022/11/20 02:10:09;;;;;;;31.38;25.92;;;0.10;99.90;;;;;;5016721;28;20128;-72
2022/11/20 02:15:19;;;;;;;33.20;26.38;;;0.10;99.90;;;;;;5017123;28;20046;-72
2022/11/20 02:17:44;;;;;;;36.15;28.10;;;0.00;99.90;;;;;;5017041;28;20045;-72
2022/11/20 02:20:11;;;;;;;41.20;27.73;;;0.10;99.90;;;;;;5016931;28;20045;-72
2022/11/20 02:22:48;;;;;;;33.67;26.75;;;0.10;99.90;;;;;;5017259;28;20034;-72
2022/11/20 02:25:14;;;;;;;31.65;25.08;;;0.10;99.90;;;;;;5016874;28;20046;-72
2022/11/20 02:27:40;;;;;;;29.80;24.05;;;0.10;99.90;;;;;;5019376;28;20053;-72
2022/11/20 02:30:10;;;;;;;32.13;25.65;;;0.10;99.90;;;;;;5037255;28;20060;-72
2022/11/20 02:32:37;;;;;;;30.73;24.00;;;0.10;99.90;;;;;;5036447;28;20041;-72
2022/11/20 02:35:18;;;;;;;29.45;23.63;;;0.10;99.90;;;;;;5030099;28;20049;-72
2022/11/20 02:37:50;;;;;;;35.17;25.13;;;0.20;99.90;;;;;;5016289;28;20072;-72
2022/11/20 02:40:15;;;;;;;30.48;24.02;;;0.10;99.90;;;;;;5016847;28;20462;-73
2022/11/20 02:42:41;;;;;;;29.17;23.92;;;0.10;99.90;;;;;;5016906;28;20046;-72
2022/11/20 02:45:07;;;;;;;30.35;24.67;;;0.20;99.90;;;;;;5016901;28;20056;-72
2022/11/20 02:47:33;;;;;;;29.05;23.27;;;0.20;99.90;;;;;;5016627;28;20108;-73
2022/11/20 02:49:59;;;;;;;29.33;24.08;;;0.20;99.90;;;;;;5016440;28;20548;-72
2022/11/20 02:52:25;;;;;;;31.25;25.20;;;0.10;99.90;;;;;;5015978;28;20050;-72
2022/11/20 02:54:51;;;;;;;28.38;23.75;;;0.20;99.90;;;;;;5016333;28;20038;-72
2022/11/20 02:57:17;;;;;;;29.08;24.00;;;0.10;99.90;;;;;;5016615;28;20050;-72
2022/11/20 02:59:42;;;;;;;29.25;24.48;;;0.20;99.90;;;;;;5016508;28;20057;-72
2022/11/20 03:02:08;;;;;;;26.33;21.75;;;0.20;99.90;;;;;;5016442;28;20129;-72
2022/11/20 03:04:33;;;;;;;25.52;22.70;;;0.20;99.90;;;;;;5016156;28;20050;-72
2022/11/20 03:06:59;;;;;;;30.65;24.83;;;0.20;99.90;;;;;;5016579;28;20062;-72
2022/11/20 03:09:24;;;;;;;28.42;23.42;;;0.20;99.90;;;;;;5015980;28;20451;-72
2022/11/20 03:11:50;;;;;;;32.08;25.15;;;0.20;99.90;;;;;;5015787;28;20054;-72
2022/11/20 03:14:16;;;;;;;30.52;24.27;;;0.20;99.90;;;;;;5016279;28;20052;-72
2022/11/20 03:16:41;;;;;;;31.17;24.42;;;0.20;99.90;;;;;;5016229;28;20042;-73
2022/11/20 03:19:07;;;;;;;30.10;23.20;;;0.30;99.90;;;;;;5034951;28;20107;-72
2022/11/20 03:21:36;;;;;;;32.95;24.70;;;0.20;99.90;;;;;;5015817;28;20466;-72
2022/11/20 03:24:02;;;;;;;31.67;25.45;;;0.30;99.90;;;;;;5016359;28;20085;-72
2022/11/20 03:26:28;;;;;;;28.20;23.55;;;0.30;99.90;;;;;;5015925;28;20057;-73
2022/11/20 03:28:58;;;;;;;29.25;23.83;;;0.30;99.90;;;;;;5015851;28;20053;-72
2022/11/20 03:31:29;;;;;;;30.25;24.08;;;0.30;99.90;;;;;;5015842;28;20060;-73
2022/11/20 03:33:56;;;;;;;30.15;24.50;;;0.30;99.90;;;;;;5034171;28;20046;-73
2022/11/20 03:36:22;;;;;;;31.33;25.05;;;0.30;99.90;;;;;;4981962;28;20045;-73
2022/11/20 03:38:49;;;;;;;34.88;25.60;;;0.30;99.90;;;;;;5031669;28;20434;-72
2022/11/20 03:41:20;;;;;;;33.17;26.00;;;0.30;99.90;;;;;;5036125;28;20041;-72
2022/11/20 03:43:53;;;;;;;29.63;24.63;;;0.30;99.90;;;;;;5035124;28;20446;-72
2022/11/20 03:46:20;;;;;;;29.08;24.48;;;0.30;99.90;;;;;;5036082;28;20049;-72
2022/11/20 03:48:46;;;;;;;30.88;25.05;;;0.30;99.90;;;;;;5035565;28;20053;-72
2022/11/20 03:51:26;;;;;;;30.58;23.65;;;0.30;99.90;;;;;;5034769;28;20073;-72
2022/11/20 03:53:53;;;;;;;28.77;23.13;;;0.30;99.90;;;;;;5035398;28;20340;-73
2022/11/20 03:56:23;;;;;;;32.22;23.83;;;0.30;99.90;;;;;;5035314;28;20103;-73
2022/11/20 03:58:49;;;;;;;27.38;23.15;;;0.30;99.90;;;;;;5035412;28;20414;-72
2022/11/20 04:01:17;;;;;;;29.67;24.58;;;0.30;99.90;;;;;;5001416;28;20087;-72
2022/11/20 04:03:43;;;;;;;28.27;24.00;;;0.30;99.90;;;;;;5035058;28;20103;-72
2022/11/20 04:06:12;;;;;;;28.38;22.65;;;0.30;99.90;;;;;;5015509;28;20045;-73
2022/11/20 04:08:38;;;;;;;30.20;23.20;;;0.40;99.90;;;;;;5015016;28;20077;-72
2022/11/20 04:11:21;;;;;;;30.08;22.63;;;0.30;99.90;;;;;;4998164;28;20041;-72
2022/11/20 04:13:49;;;;;;;28.13;24.23;;;0.40;99.90;;;;;;5015723;28;20061;-73
2022/11/20 04:16:15;;;;;;;30.00;23.20;;;0.40;99.90;;;;;;4997969;28;20045;-73
2022/11/20 04:18:43;;;;;;;28.65;23.63;;;0.40;99.90;;;;;;5015810;28;20073;-73
2022/11/20 04:21:09;;;;;;;28.30;22.63;;;0.40;99.90;;;;;;5014818;28;20037;-73
2022/11/20 04:23:35;;;;;;;27.58;23.30;;;0.30;99.90;;;;;;5016642;28;20081;-73
2022/11/20 04:26:06;;;;;;;27.63;23.08;;;0.30;99.90;;;;;;5001967;28;20081;-73
2022/11/20 04:28:32;;;;;;;28.55;22.85;;;1.00;99.90;;;;;;5019735;28;20437;-72
2022/11/20 04:31:04;;;;;;;25.63;21.33;;;0.30;99.90;;;;;;5019125;28;20101;-72
2022/11/20 04:33:30;;;;;;;24.73;20.83;;;0.40;99.90;;;;;;5019178;28;20053;-73
2022/11/20 04:36:04;;;;;;;25.58;21.35;;;0.40;99.90;;;;;;5018648;28;20050;-72
2022/11/20 04:38:29;;;;;;;27.05;22.70;;;0.40;99.90;;;;;;5019182;28;20050;-71
2022/11/20 04:41:00;;;;;;;28.38;23.45;;;0.40;99.90;;;;;;5001589;28;20370;-73
2022/11/20 04:43:26;;;;;;;25.85;22.15;;;0.40;99.90;;;;;;5018848;28;20042;-73
2022/11/20 04:45:56;;;;;;;27.70;23.25;;;0.40;99.90;;;;;;5018821;28;20053;-72
2022/11/20 04:48:22;;;;;;;28.13;22.90;;;0.40;99.90;;;;;;5018837;28;20041;-72
2022/11/20 04:50:48;;;;;;;28.30;23.27;;;0.40;99.90;;;;;;5018765;28;20056;-73
2022/11/20 04:53:14;;;;;;;27.75;22.80;;;0.40;99.90;;;;;;5018602;28;20462;-72
2022/11/20 04:55:39;;;;;;;27.85;22.25;;;0.40;99.90;;;;;;5018516;28;20366;-72
2022/11/20 04:58:05;;;;;;;26.95;23.20;;;0.40;99.90;;;;;;5019185;28;20046;-72
2022/11/20 05:00:31;;;;;;;26.10;23.15;;;0.40;99.90;;;;;;5018698;28;20053;-73
2022/11/20 05:02:57;;;;;;;28.23;23.77;;;0.40;99.90;;;;;;5018712;28;20050;-72
2022/11/20 05:05:22;;;;;;;30.60;24.15;;;0.40;99.90;;;;;;5018611;28;20050;-72
2022/11/20 05:07:48;;;;;;;29.92;23.02;;;0.60;99.90;;;;;;5018130;28;20046;-72
2022/11/20 05:10:14;;;;;;;28.40;23.20;;;0.50;99.90;;;;;;5018957;28;20112;-72
2022/11/20 05:12:39;;;;;;;28.05;23.02;;;0.50;99.90;;;;;;5018271;28;20378;-73
2022/11/20 05:15:05;;;;;;;29.30;23.55;;;0.50;99.90;;;;;;5018435;28;20133;-72
2022/11/20 05:17:31;;;;;;;30.35;23.58;;;0.50;99.90;;;;;;5018435;28;20077;-73
2022/11/20 05:19:56;;;;;;;26.17;22.83;;;0.40;99.90;;;;;;5018479;28;20097;-72
2022/11/20 05:22:22;;;;;;;27.25;22.88;;;0.40;99.90;;;;;;5017019;28;20041;-74
2022/11/20 05:24:47;;;;;;;26.73;23.48;;;0.50;99.90;;;;;;5017957;28;20350;-73
2022/11/20 05:27:13;;;;;;;26.52;21.17;;;0.50;99.90;;;;;;5017991;28;20107;-72
2022/11/20 05:29:38;;;;;;;28.17;22.95;;;0.80;99.90;;;;;;5013339;28;20200;-72
2022/11/20 05:32:05;;;;;;;27.45;22.52;;;0.50;99.90;;;;;;4998388;28;20050;-72
2022/11/20 05:34:31;;;;;;;24.80;19.77;;;0.40;99.90;;;;;;4998307;28;20050;-73
2022/11/20 05:36:57;;;;;;;24.30;20.38;;;0.50;99.90;;;;;;4998523;28;20431;-73
2022/11/20 05:39:22;;;;;;;23.45;19.98;;;0.80;99.90;;;;;;5015957;28;20054;-72
2022/11/20 05:42:29;;;;;;;25.33;20.75;;;0.40;99.90;;;;;;5017561;28;20352;-72
2022/11/20 05:44:33;;;;;;;26.95;22.20;;;0.40;99.90;;;;;;5017395;28;20049;-73
2022/11/20 05:46:59;;;;;;;28.27;22.95;;;0.60;99.90;;;;;;5018088;28;20058;-72
2022/11/20 05:49:24;;;;;;;28.17;22.60;;;0.50;99.90;;;;;;5037408;28;20081;-73
2022/11/20 05:51:50;;;;;;;26.50;21.00;;;0.50;99.90;;;;;;5037849;28;20042;-73
2022/11/20 05:54:16;;;;;;;25.17;20.60;;;0.50;99.90;;;;;;5037326;28;20132;-73
2022/11/20 05:56:41;;;;;;;25.95;20.38;;;0.50;99.90;;;;;;5037260;28;20045;-72
2022/11/20 05:59:07;;;;;;;23.85;20.65;;;0.50;99.90;;;;;;5001746;28;20042;-72
2022/11/20 06:01:32;;;;;;;25.08;20.83;;;0.50;99.90;;;;;;5017438;28;20045;-73
2022/11/20 06:03:58;;;;;;;25.00;21.15;;;0.50;99.90;;;;;;5017236;28;20046;-72
2022/11/20 06:06:25;;;;;;;24.48;19.75;;;0.50;99.90;;;;;;5017279;28;20347;-73
2022/11/20 06:08:51;;;;;;;25.80;19.75;;;0.50;99.90;;;;;;5016991;28;20054;-72
2022/11/20 06:11:17;;;;;;;27.40;20.77;;;0.50;99.90;;;;;;5017296;28;20053;-72
2022/11/20 06:13:43;;;;;;;24.98;21.23;;;0.50;99.90;;;;;;4999776;28;20454;-73
2022/11/20 06:16:10;;;;;;;24.35;20.65;;;0.50;99.90;;;;;;5036184;28;20052;-72
2022/11/20 06:18:36;;;;;;;24.88;20.75;;;0.50;99.90;;;;;;5037102;28;20057;-73
2022/11/20 06:21:04;;;;;;;26.50;20.90;;;0.50;99.90;;;;;;5037000;28;20442;-73
2022/11/20 06:23:31;;;;;;;24.30;20.20;;;0.50;99.90;;;;;;5037160;28;20068;-72
2022/11/20 06:25:57;;;;;;;24.40;20.05;;;0.50;99.90;;;;;;5036345;28;20041;-72
2022/11/20 06:28:22;;;;;;;23.33;20.27;;;1.10;99.90;;;;;;5011771;28;20351;-73
2022/11/20 06:30:48;;;;;;;26.80;19.77;;;0.90;99.90;;;;;;5011847;28;20069;-74
2022/11/20 06:33:14;;;;;;;24.55;20.23;;;0.50;99.90;;;;;;5016533;28;20042;-72
2022/11/20 06:35:39;;;;;;;23.30;18.60;;;0.50;99.90;;;;;;5016744;28;20026;-72
2022/11/20 06:38:05;;;;;;;22.13;18.88;;;0.50;99.90;;;;;;5016445;28;20046;-72
2022/11/20 06:40:30;;;;;;;20.25;18.05;;;0.50;99.90;;;;;;5016671;28;20100;-71
2022/11/20 06:42:56;;;;;;;22.20;18.55;;;0.50;99.90;;;;;;5016471;28;20038;-71
2022/11/20 06:45:22;;;;;;;21.67;18.65;;;0.50;99.90;;;;;;5016815;28;20133;-71
2022/11/20 06:47:47;;;;;;;21.83;17.85;;;0.80;99.90;;;;;;5016300;28;20469;-71
2022/11/20 06:50:13;;;;;;;21.45;18.35;;;0.50;99.90;;;;;;5016635;28;20124;-71
2022/11/20 06:52:39;;;;;;;22.02;19.50;;;0.50;99.90;;;;;;4999016;28;20042;-72
2022/11/20 06:55:04;;;;;;;21.90;18.88;;;0.50;99.90;;;;;;5016599;28;20350;-71
2022/11/20 06:57:30;;;;;;;22.35;18.83;;;0.50;99.90;;;;;;5016662;28;20041;-72
2022/11/20 06:59:55;;;;;;;21.77;19.23;;;0.50;99.90;;;;;;5016011;28;20077;-73
2022/11/20 07:02:21;;;;;;;21.15;17.75;;;0.50;99.90;;;;;;5016508;28;20049;-72
2022/11/20 07:04:47;;;;;;;20.70;18.00;;;0.50;99.90;;;;;;5016176;28;20042;-73
2022/11/20 07:07:12;;;;;;;21.00;17.75;;;0.60;99.90;;;;;;5016495;28;20474;-73
2022/11/20 07:09:38;;;;;;;20.23;17.95;;;0.50;99.90;;;;;;5016040;28;20446;-73
2022/11/20 07:12:03;;;;;;;21.55;17.48;;;0.50;99.90;;;;;;5003513;28;20042;-73
2022/11/20 07:14:29;;;;;;;20.88;18.17;;;0.60;99.90;;;;;;5016759;28;20085;-73
2022/11/20 07:16:55;;;;;;;20.88;18.38;;;0.60;99.90;;;;;;5016242;28;20042;-72
2022/11/20 07:19:20;;;;;;;20.48;17.88;;;0.60;99.90;;;;;;5016671;28;20046;-72
2022/11/20 07:21:46;;;;;;;21.98;18.40;;;0.60;99.90;;;;;;5015686;28;20046;-74
2022/11/20 07:24:12;;;;;;;21.23;18.00;;;0.60;99.90;;;;;;5015700;28;20045;-72
2022/11/20 07:26:37;;;;;;;23.05;20.00;;;0.60;99.90;;;;;;5016212;28;20457;-74
2022/11/20 07:29:03;;;;;;;20.15;17.70;;;0.80;99.90;;;;;;5015499;28;20053;-72
2022/11/20 07:31:28;;;;;;;20.92;18.63;;;0.60;99.90;;;;;;5015168;28;20111;-74
2022/11/20 07:33:54;;;;;;;23.13;20.00;;;0.60;99.90;;;;;;5015237;28;20049;-73
2022/11/20 07:36:19;;;;;;;22.23;18.33;;;0.60;99.90;;;;;;5015611;28;20213;-73
2022/11/20 07:38:45;;;;;;;22.42;18.67;;;0.70;99.90;;;;;;5015542;28;20042;-73
2022/11/20 07:41:11;;;;;;;21.42;18.40;;;0.60;99.90;;;;;;5015790;28;20048;-72
2022/11/20 07:43:36;;;;;;;26.67;20.45;;;0.60;99.90;;;;;;5015473;28;20454;-72
2022/11/20 07:46:03;;;;;;;22.63;18.67;;;0.70;99.90;;;;;;5015495;28;20042;-73
2022/11/20 07:48:29;;;;;;;21.90;19.13;;;0.70;99.90;;;;;;5015408;28;20045;-73
2022/11/20 07:50:55;;;;;;;24.10;19.77;;;0.70;99.90;;;;;;5015266;28;20049;-73
2022/11/20 07:53:22;;;;;;;22.55;19.73;;;0.70;99.90;;;;;;5015655;28;20430;-72
2022/11/20 07:55:48;;;;;;;24.00;19.40;;;0.70;99.90;;;;;;5015394;28;20038;-73
2022/11/20 07:58:13;;;;;;;23.77;19.33;;;0.80;99.90;;;;;;5014322;28;20041;-72
2022/11/20 08:00:40;;;;;;;23.63;18.38;;;0.70;99.90;;;;;;5015628;28;20042;-73
2022/11/20 08:03:06;;;;;;;26.33;19.85;;;0.80;99.90;;;;;;5015488;28;20037;-72
2022/11/20 08:05:31;;;;;;;21.60;18.25;;;0.80;99.90;;;;;;5015101;28;20046;-73
2022/11/20 08:07:57;;;;;;;23.80;18.33;;;0.80;99.90;;;;;;5015476;28;20044;-73
2022/11/20 08:10:23;;;;;;;20.33;17.98;;;0.90;99.90;;;;;;5015255;28;20057;-74
2022/11/20 08:15:35;;;;;;;23.05;19.35;;;0.90;99.90;;;;;;5014664;28;20046;-73
2022/11/20 08:18:11;;;;;;;24.55;19.85;;;0.90;99.90;;;;;;5015117;28;20134;-74
2022/11/20 08:20:37;;;;;;;23.58;19.30;;;1.00;99.90;;;;;;5014976;28;20050;-73
2022/11/20 08:23:05;;;;;;;21.75;18.83;;;1.00;99.90;;;;;;5015246;28;20029;-73
2022/11/20 08:25:32;;;;;;;22.10;17.52;;;1.00;99.90;;;;;;5015418;28;20042;-72
2022/11/20 08:27:59;;;;;;;24.25;19.27;;;1.00;99.90;;;;;;5014518;28;20052;-72
2022/11/20 08:30:26;;;;;;;22.25;18.55;;;1.10;99.90;;;;;;5015400;28;20403;-73
2022/11/20 08:32:52;;;;;;;25.60;21.05;;;1.10;99.90;;;;;;5015068;28;20068;-73
2022/11/20 08:35:18;;;;;;;27.65;20.50;;;1.10;99.90;;;;;;5015291;28;20532;-72
2022/11/20 08:37:47;;;;;;;23.55;20.15;;;1.10;99.90;;;;;;5015323;28;20141;-73
2022/11/20 08:40:12;;;;;;;21.80;19.10;;;1.10;99.90;;;;;;5015144;28;20053;-73
2022/11/20 08:42:49;;;;;;;17.77;15.88;;;1.10;99.90;;;;;;5014421;28;20042;-73
2022/11/20 08:45:15;;;;;;;20.23;16.67;;;1.10;99.90;;;;;;4997816;28;20050;-73
2022/11/20 08:47:41;;;;;;;21.05;17.55;;;1.10;99.90;;;;;;4997868;28;20045;-73
2022/11/20 08:50:08;;;;;;;20.42;17.27;;;1.10;99.90;;;;;;5014979;28;20045;-73
2022/11/20 08:52:34;;;;;;;26.05;20.55;;;1.10;99.90;;;;;;5014866;28;20112;-73
2022/11/20 08:54:59;;;;;;;18.98;15.50;;;1.10;99.90;;;;;;4980428;28;20058;-73
2022/11/20 08:57:25;;;;;;;22.08;18.20;;;2.20;99.90;;;;;;5014240;28;20129;-73
2022/11/20 08:59:50;;;;;;;20.33;16.48;;;1.50;99.90;;;;;;5014946;28;20046;-73
2022/11/20 09:02:16;;;;;;;21.45;19.20;;;1.20;99.90;;;;;;5014777;28;20124;-73
2022/11/20 09:04:41;;;;;;;22.95;20.45;;;1.30;99.90;;;;;;5014922;28;20042;-73
2022/11/20 09:07:07;;;;;;;19.13;16.20;;;1.30;99.90;;;;;;5014798;28;20042;-73
2022/11/20 09:09:33;;;;;;;22.00;19.60;;;1.30;99.90;;;;;;5015634;28;20057;-73
2022/11/20 09:11:58;;;;;;;21.08;18.88;;;1.30;99.90;;;;;;5018178;28;20046;-72
2022/11/20 09:14:28;;;;;;;19.58;17.17;;;1.30;99.90;;;;;;5017961;28;20420;-73
2022/11/20 09:16:55;;;;;;;19.15;16.08;;;1.40;99.90;;;;;;5018182;28;20049;-73
2022/11/20 09:19:20;;;;;;;17.48;15.05;;;1.40;99.90;;;;;;5018511;28;20060;-73
2022/11/20 09:21:46;;;;;;;19.33;14.10;;;1.40;99.90;;;;;;5018064;28;20117;-73
2022/11/20 09:24:11;;;;;;;20.50;15.57;;;1.40;99.90;;;;;;5018361;28;20121;-73
2022/11/20 09:26:37;;;;;;;16.40;14.70;;;1.50;99.90;;;;;;5017911;28;20041;-74
2022/11/20 09:29:02;;;;;;;17.30;14.98;;;1.50;99.90;;;;;;5018379;28;20037;-73
2022/11/20 09:31:28;;;;;;;18.10;14.50;;;1.50;99.90;;;;;;5018490;28;20045;-73
2022/11/20 09:33:54;;;;;;;17.35;14.40;;;1.50;99.90;;;;;;5018078;28;20049;-73
2022/11/20 09:36:19;;;;;;;17.17;14.85;;;1.50;99.90;;;;;;5018117;28;20057;-73
2022/11/20 09:38:46;;;;;;;16.90;15.07;;;1.60;99.90;;;;;;5018145;28;20485;-73
2022/11/20 09:41:44;;;;;;;19.10;16.05;;;1.60;99.90;;;;;;5016986;28;20482;-73
2022/11/20 09:44:34;;;;;;;18.77;15.82;;;1.70;99.90;;;;;;4978812;28;20425;-73
2022/11/20 09:47:29;;;;;;;24.30;21.58;;;1.70;99.90;;;;;;5017961;28;20052;-73
2022/11/20 09:50:43;;;;;;;18.38;15.48;;;1.80;99.90;;;;;;5009703;28;20466;-73
2022/11/20 09:53:23;;;;;;;19.40;16.60;;;1.80;99.90;;;;;;4931022;28;20087;-73
2022/11/20 09:55:49;;;;;;;18.30;15.70;;;1.90;99.90;;;;;;5017225;28;20050;-73
2022/11/20 09:58:35;;;;;;;20.25;16.60;;;1.90;99.90;;;;;;5017502;28;20117;-73
2022/11/20 10:01:14;;;;;;;22.45;18.48;;;2.20;99.90;;;;;;5017506;28;20042;-73
2022/11/20 10:04:14;;;;;;;21.48;16.52;;;2.00;99.90;;;;;;5016968;28;20188;-74
2022/11/20 10:07:01;;;;;;;17.50;15.68;;;2.00;99.90;;;;;;5018593;28;20414;-72
2022/11/20 10:09:34;;;;;;;17.40;15.50;;;2.10;99.90;;;;;;5016878;28;20081;-73
2022/11/20 10:12:12;;;;;;;17.60;15.32;;;2.10;99.90;;;;;;4997938;28;20074;-74
2022/11/20 10:15:00;;;;;;;17.17;14.82;;;2.10;99.90;;;;;;4997617;28;20046;-73
2022/11/20 10:17:47;;;;;;;16.27;13.98;;;2.10;99.90;;;;;;4997632;28;20093;-74
2022/11/20 10:20:19;;;;;;;17.92;15.98;;;2.20;99.90;;;;;;4997686;28;20058;-73
2022/11/20 10:23:03;;;;;;;17.55;15.57;;;2.20;99.90;;;;;;4999419;28;20077;-73
2022/11/20 10:25:39;;;;;;;14.82;13.00;;;2.30;99.90;;;;;;5004793;28;20057;-74
2022/11/20 10:28:33;;;;;;;23.23;20.83;;;2.30;99.90;;;;;;5011338;28;20105;-73
2022/11/20 10:31:07;;;;;;;21.03;18.17;;;2.40;99.90;;;;;;5016768;28;20446;-74
2022/11/20 10:33:41;;;;;;;23.15;16.10;;;2.40;99.90;;;;;;5016973;28;20119;-74
2022/11/20 10:36:30;;;;;;;16.42;14.50;;;2.40;99.90;;;;;;5005123;28;20057;-72
2022/11/20 10:39:06;;;;;;;17.75;15.48;;;2.40;99.90;;;;;;4997191;28;20038;-74
2022/11/20 10:41:41;;;;;;;13.50;11.90;;;2.50;99.90;;;;;;5000031;28;20417;-76
2022/11/20 10:45:00;;;;;;;16.17;14.48;;;2.50;99.90;;;;;;5016620;28;20129;-73
2022/11/20 10:47:03;;;;;;;;;;;2.60;99.90;;;;;;5016399;28;20057;-73
2022/11/20 10:49:30;;;;;;;30.85;25.83;;;2.60;99.90;;;;;;5017748;28;19944;-73
2022/11/20 10:52:31;;;;;;;16.42;14.45;;;2.60;99.90;;;;;;5019012;28;20478;-74
2022/11/20 10:55:20;;;;;;;25.92;23.23;;;2.70;99.90;;;;;;5000548;28;20062;-74
2022/11/20 10:57:51;;;;;;;19.50;17.42;;;2.70;99.90;;;;;;5016242;28;20125;-75
2022/11/20 11:00:17;;;;;;;18.50;16.60;;;2.70;99.90;;;;;;5016107;28;20050;-74
2022/11/20 11:02:56;;;;;;;16.38;14.07;;;2.80;99.90;;;;;;5016132;28;20100;-74
2022/11/20 11:05:42;;;;;;;16.65;14.85;;;2.80;99.90;;;;;;5016280;28;20129;-73
2022/11/20 11:08:16;;;;;;;17.50;14.73;;;2.90;99.90;;;;;;5015892;28;20125;-73
2022/11/20 11:10:49;;;;;;;17.13;14.95;;;2.90;99.90;;;;;;5015945;28;20189;-73
2022/11/20 11:13:26;;;;;;;16.23;14.52;;;2.90;99.90;;;;;;5015960;28;20050;-73
2022/11/20 11:15:52;;;;;;;14.77;12.35;;;2.90;99.90;;;;;;5015715;28;20096;-71
2022/11/20 11:18:30;;;;;;;16.55;13.90;;;3.00;99.90;;;;;;5015403;28;20479;-74
2022/11/20 11:20:57;;;;;;;14.73;12.15;;;3.00;99.90;;;;;;5016631;28;20513;-73
2022/11/20 11:23:42;;;;;;;14.48;12.10;;;3.00;99.90;;;;;;5016221;28;20124;-74
2022/11/20 11:26:24;;;;;;;15.48;12.50;;;2.90;99.90;;;;;;5015833;28;20105;-74
2022/11/20 11:28:54;;;;;;;14.77;11.70;;;2.90;99.90;;;;;;5015900;28;20105;-74
2022/11/20 11:31:31;;;;;;;14.65;12.73;;;2.90;99.90;;;;;;5015291;28;20038;-74
2022/11/20 11:34:16;;;;;;;13.85;12.18;;;2.80;99.90;;;;;;5015427;28;20074;-74
2022/11/20 11:36:49;;;;;;;14.60;12.68;;;2.80;99.90;;;;;;5015677;28;20042;-74
2022/11/20 11:39:17;;;;;;;14.03;12.63;;;2.80;99.90;;;;;;5015681;28;20041;-74
2022/11/20 11:41:44;;;;;;;13.48;12.00;;;2.80;99.90;;;;;;5015718;28;20046;-73
2022/11/20 11:47:26;;;;;;;12.68;11.18;;;2.80;99.90;;;;;;5015355;28;20525;-73
2022/11/20 11:50:09;;;;;;;17.05;13.57;;;2.80;99.90;;;;;;5015610;28;20128;-74
2022/11/20 11:52:56;;;;;;;13.98;11.45;;;2.90;99.90;;;;;;5015361;28;20042;-73
2022/11/20 11:55:41;;;;;;;13.20;10.65;;;2.90;99.90;;;;;;5015755;28;20056;-74
2022/11/20 11:58:26;;;;;;;13.25;11.00;;;2.90;99.90;;;;;;5015433;28;20053;-73
2022/11/20 12:01:02;;;;;;;13.23;11.32;;;2.90;99.90;;;;;;5015010;28;20046;-74
2022/11/20 12:03:37;;;;;;;15.52;12.35;;;2.90;99.90;;;;;;5014956;28;20050;-74
2022/11/20 12:06:14;;;;;;;25.60;22.90;;;2.90;99.90;;;;;;5014638;28;20049;-74
2022/11/20 12:08:51;;;;;;;17.77;14.50;;;2.90;99.90;;;;;;5014910;28;20072;-74
2022/11/20 12:11:20;;;;;;;15.68;12.75;;;2.90;99.90;;;;;;5015330;28;20068;-73
2022/11/20 12:14:04;;;;;;;12.52;11.02;;;2.90;99.90;;;;;;5015019;28;20046;-74
2022/11/20 12:16:35;;;;;;;13.27;9.90;;;2.90;99.90;;;;;;5015144;28;20046;-74
2022/11/20 12:19:01;;;;;;;12.57;10.23;;;3.00;99.90;;;;;;5015355;28;20046;-73
2022/11/20 12:21:36;;;;;;;10.95;8.95;;;3.00;99.90;;;;;;5014728;28;20129;-73
2022/11/20 12:24:20;;;;;;;9.48;8.18;;;3.10;99.90;;;;;;5015808;28;20458;-74
2022/11/20 12:27:02;;;;;;;8.30;7.13;;;3.20;99.90;;;;;;5014897;28;20042;-73
2022/11/20 12:29:56;;;;;;;9.27;7.30;;;3.30;99.90;;;;;;5015204;28;20129;-74
2022/11/20 12:32:21;;;;;;;;;;;3.40;99.90;;;;;;5015648;28;20057;-76
2022/11/20 12:35:15;;;;;;;8.98;7.82;;;3.40;99.90;;;;;;5014969;28;20246;-74
2022/11/20 12:38:20;;;;;;;9.95;8.18;;;3.50;99.90;;;;;;5015323;28;20040;-74
2022/11/20 12:41:10;;;;;;;9.52;7.95;;;3.70;99.90;;;;;;5013670;28;20478;-74
2022/11/20 12:46:59;;;;;;;10.40;8.65;;;3.90;99.90;;;;;;4980467;28;20062;-73
2022/11/20 12:49:37;;;;;;;10.60;8.13;;;3.90;99.90;;;;;;4999463;28;20228;-72
2022/11/20 12:52:23;;;;;;;11.52;10.27;;;3.90;99.90;;;;;;5001047;28;20139;-72
2022/11/20 12:55:14;;;;;;;10.20;7.57;;;3.90;99.90;;;;;;5006546;28;20058;-72
2022/11/20 12:58:01;;;;;;;11.55;9.45;;;3.80;99.90;;;;;;4998215;28;20076;-72
2022/11/20 13:00:27;;;;;;;12.70;9.30;;;3.70;99.90;;;;;;5016184;28;20046;-73
2022/11/20 13:03:02;;;;;;;11.60;10.40;;;3.70;99.90;;;;;;5000142;28;20042;-72
2022/11/20 13:06:08;;;;;;;11.48;9.55;;;3.60;99.90;;;;;;5017946;28;20045;-73
2022/11/20 13:08:39;;;;;;;10.88;9.38;;;3.50;99.90;;;;;;5017722;28;20049;-72